createdAt,value
2022-11-19T00:02:06.240Z,88
2022-11-19T00:12:06.181Z,88
2022-11-19T00:22:06.157Z,88
2022-11-19T00:32:06.155Z,89
2022-11-19T00:42:06.151Z,89
2022-11-19T00:52:06.159Z,89
2022-11-19T01:02:06.119Z,89
2022-11-19T01:12:06.121Z,89
2022-11-19T01:22:06.116Z,89
2022-11-19T01:32:06.105Z,89
2022-11-19T01:42:06.073Z,89
2022-11-19T01:52:06.140Z,89
2022-11-19T02:02:06.053Z,89
2022-11-19T02:12:06.040Z,89
2022-11-19T02:22:06.071Z,89
2022-11-19T02:32:06.056Z,89
2022-11-19T02:42:06.022Z,89
2022-11-19T02:52:06.043Z,89
2022-11-19T03:02:06.027Z,90
2022-11-19T03:12:06.030Z,90
2022-11-19T03:22:05.991Z,90
2022-11-19T03:32:05.973Z,90
2022-11-19T03:42:05.978Z,90
2022-11-19T03:52:05.986Z,90
2022-11-19T04:02:06.024Z,90
2022-11-19T04:12:06.005Z,90
2022-11-19T04:22:05.969Z,90
2022-11-19T04:32:05.906Z,90
2022-11-19T04:42:05.931Z,90
2022-11-19T04:52:05.904Z,90
2022-11-19T05:02:05.870Z,90
2022-11-19T05:12:05.878Z,90
2022-11-19T05:22:05.927Z,90
2022-11-19T05:32:05.846Z,90
2022-11-19T05:42:05.850Z,90
2022-11-19T05:52:05.827Z,90
2022-11-19T06:02:05.831Z,90
2022-11-19T06:12:05.853Z,90
2022-11-19T06:22:05.839Z,90
2022-11-19T06:32:05.777Z,90
2022-11-19T06:42:05.804Z,90
2022-11-19T06:52:05.832Z,91
2022-11-19T07:02:05.785Z,91
2022-11-19T07:12:05.784Z,91
2022-11-19T07:22:05.743Z,91
2022-11-19T07:32:05.721Z,91
2022-11-19T07:42:05.771Z,91
2022-11-19T07:52:05.700Z,91
2022-11-19T08:02:05.764Z,91
2022-11-19T08:12:05.722Z,91
2022-11-19T08:22:05.676Z,91
2022-11-19T08:32:05.716Z,91
2022-11-19T08:42:05.669Z,91
2022-11-19T08:52:05.639Z,91
2022-11-19T09:02:05.656Z,90
2022-11-19T09:12:05.621Z,90
2022-11-19T09:22:05.616Z,90
2022-11-19T09:32:05.590Z,90
2022-11-19T09:42:05.570Z,90
2022-11-19T09:52:05.574Z,90
2022-11-19T10:02:05.523Z,89
2022-11-19T10:12:05.545Z,89
2022-11-19T10:22:05.517Z,89
2022-11-19T10:32:05.491Z,89
2022-11-19T10:42:05.503Z,88
2022-11-19T10:52:05.436Z,88
2022-11-19T11:02:05.454Z,87
2022-11-19T11:12:05.421Z,87
2022-11-19T11:22:05.406Z,87
2022-11-19T11:32:05.379Z,86
2022-11-19T11:42:06.962Z,86
2022-11-19T11:52:05.359Z,85
2022-11-19T12:02:05.381Z,85
2022-11-19T12:12:05.336Z,84
2022-11-19T12:22:05.314Z,84
2022-11-19T12:32:05.286Z,84
2022-11-19T12:42:05.273Z,84
2022-11-19T12:52:05.282Z,84
2022-11-19T13:02:05.230Z,83
2022-11-19T13:12:05.229Z,83
2022-11-19T13:22:05.238Z,83
2022-11-19T13:32:05.169Z,83
2022-11-19T13:42:05.154Z,83
2022-11-19T13:52:05.181Z,82
2022-11-19T14:02:05.118Z,82
2022-11-19T14:12:05.106Z,82
2022-11-19T14:22:05.124Z,82
2022-11-19T14:32:05.079Z,81
2022-11-19T14:52:05.093Z,81
2022-11-19T15:02:05.045Z,81
2022-11-19T15:12:05.023Z,81
2022-11-19T15:22:05.046Z,81
2022-11-19T15:32:04.984Z,82
2022-11-19T15:42:04.948Z,82
2022-11-19T15:52:04.972Z,82
2022-11-19T16:02:04.943Z,82
2022-11-19T16:12:04.927Z,81
2022-11-19T16:22:04.945Z,81
2022-11-19T16:32:04.918Z,81
2022-11-19T16:42:04.862Z,82
2022-11-19T17:02:04.942Z,82
2022-11-19T17:12:04.861Z,83
2022-11-19T17:22:04.852Z,83
2022-11-19T17:32:04.820Z,83
2022-11-19T17:42:04.890Z,84
2022-11-19T17:52:04.841Z,84
2022-11-19T18:02:04.828Z,84
2022-11-19T18:12:04.787Z,84
2022-11-19T18:22:04.769Z,84
2022-11-19T18:32:04.727Z,84
2022-11-19T18:42:04.763Z,84
2022-11-19T18:52:04.721Z,85
2022-11-19T19:02:04.729Z,85
2022-11-19T19:12:09.742Z,85
2022-11-19T19:22:04.693Z,85
2022-11-19T19:32:04.640Z,85
2022-11-19T19:42:04.679Z,85
2022-11-19T19:52:04.651Z,85
2022-11-19T20:02:04.636Z,86
2022-11-19T20:12:04.634Z,86
2022-11-19T20:22:04.602Z,86
2022-11-19T20:32:04.582Z,86
2022-11-19T20:42:04.604Z,86
2022-11-19T20:52:04.588Z,86
2022-11-19T21:02:04.635Z,86
2022-11-19T21:12:04.555Z,86
2022-11-19T21:22:04.556Z,86
2022-11-19T21:32:04.469Z,87
2022-11-19T21:42:04.500Z,87
2022-11-19T21:52:04.467Z,87
2022-11-19T22:02:04.478Z,87
2022-11-19T22:12:04.493Z,87
2022-11-19T22:22:04.445Z,87
2022-11-19T22:32:04.430Z,87
2022-11-19T22:42:04.445Z,87
2022-11-19T22:52:04.401Z,87
2022-11-19T23:02:04.390Z,88
2022-11-19T23:12:04.423Z,88
2022-11-19T23:32:04.383Z,88
2022-11-19T23:42:04.404Z,88
2022-11-19T23:52:04.338Z,88
